ESSB/BMA METAR and TAF weather

Enter ICAO airport designator
Station Type Date Time Source
ESSB METAR 2020/11/27 14:50 UTC NOAA

ESSB 271450Z 30004KT 9999 SCT023 01/M00 Q1020 R12/19//95


Station Type Date Time Source
ESSB Decoded METAR 2020/11/27 14:50 UTC NOAA

Stockholm / Bromma, Sweden (ESSB) 59-21N 017-57E 14M
Nov 27, 2020 - 09:50 AM EST / 2020.11.27 1450 UTC
Wind: from the WNW (300 degrees) at 5 MPH (4 KT):0
Visibility: greater than 7 mile(s):0
Sky conditions: partly cloudy
Temperature: 33 F (1 C)
Windchill: 28 F (-2 C):1
Dew Point: 32 F (0 C)
Relative Humidity: 93%
Pressure (altimeter): 30.12 in. Hg (1020 hPa)
ob: ESSB 271450Z 30004KT 9999 SCT023 01/M00 Q1020 R12/19//95
cycle: 15

Station Type Date Time Source
ESSB TAF 2017/03/27 06:35 UTC NOAA

TAF ESSB 270530Z 2706/2724 27008KT CAVOK
BECMG 2710/2713 29015G25KT

Example: see airport list